Lassen Volcanic Natl Park, California
Current Conditions -  °F | °C
As of 4:16 AM on Friday 28 Nov 2014 (Local Time) from KRDD Reporting Station
Haze Haze  
Wind Chill: 43°   Ceiling: Unl
Heat Index: 43°   Visibility: 2mi
Dew Point: 41°   Wind: 0mph
Humidity: 93%   Direction: NA
Pressure: 29.99"   Gusts: NA
Location:  40.5°N, 121.32°W
Report Text: KRDD 281216Z AUTO 00000KT 2SM BR CLR 06/05 A2999 RMK AO2 T00610050
Loading
Personal Weather Stations






























Interactive Weather Map New forecast layout! Learn more

10-Day Weather Forecast

Advertisements
Track Severe Weather on mobile